Danville, Canada
Current Conditions -  °F | °C
As of 8:00 PM on Tuesday 25 Nov 2014 (Local Time) from CYSC Reporting Station
Overcast Overcast  
Wind Chill: 33°   Ceiling: 5000
Heat Index: 41°   Visibility: 9mi
Dew Point: 27°   Wind: 15mph
Humidity: 57%   Direction: 250°WSW
Pressure: 29.91"   Gusts: 28mph
Location:  45.78°N, 72.02°W
Report Text: CYSC 260100Z AUTO 25013G24KT 9SM OVC050 05/M03 A2991 RMK SLP137
Loading
Personal Weather Stations






























Interactive Weather Map New forecast layout! Learn more

10-Day Weather Forecast

Advertisements
Track Severe Weather on mobile